sensor_id;sensor_type;location;lat;lon;timestamp;P1;durP1;ratioP1;P2;durP2;ratioP2
5616;SDS011;2830;50.656;7.568;2024-01-07T00:02:21;22.83;;;11.23;;
5616;SDS011;2830;50.656;7.568;2024-01-07T00:04:47;24.63;;;12.18;;
5616;SDS011;2830;50.656;7.568;2024-01-07T00:07:14;18.10;;;10.02;;
5616;SDS011;2830;50.656;7.568;2024-01-07T00:09:41;21.13;;;10.75;;
5616;SDS011;2830;50.656;7.568;2024-01-07T00:12:08;23.42;;;10.43;;
5616;SDS011;2830;50.656;7.568;2024-01-07T00:14:35;25.00;;;12.05;;
5616;SDS011;2830;50.656;7.568;2024-01-07T00:17:02;22.58;;;12.40;;
5616;SDS011;2830;50.656;7.568;2024-01-07T00:19:29;24.33;;;11.20;;
5616;SDS011;2830;50.656;7.568;2024-01-07T00:22:01;22.52;;;9.43;;
5616;SDS011;2830;50.656;7.568;2024-01-07T00:24:28;26.15;;;10.93;;
5616;SDS011;2830;50.656;7.568;2024-01-07T00:26:55;25.08;;;12.23;;
5616;SDS011;2830;50.656;7.568;2024-01-07T00:29:22;27.23;;;11.05;;
5616;SDS011;2830;50.656;7.568;2024-01-07T00:31:49;29.63;;;10.70;;
5616;SDS011;2830;50.656;7.568;2024-01-07T00:34:16;24.10;;;11.35;;
5616;SDS011;2830;50.656;7.568;2024-01-07T00:36:43;21.65;;;10.80;;
5616;SDS011;2830;50.656;7.568;2024-01-07T00:39:11;27.08;;;12.05;;
5616;SDS011;2830;50.656;7.568;2024-01-07T00:41:38;22.58;;;11.15;;
5616;SDS011;2830;50.656;7.568;2024-01-07T00:44:04;18.27;;;9.38;;
5616;SDS011;2830;50.656;7.568;2024-01-07T00:46:31;21.35;;;11.85;;
5616;SDS011;2830;50.656;7.568;2024-01-07T00:48:58;20.73;;;10.27;;
5616;SDS011;2830;50.656;7.568;2024-01-07T00:51:25;23.30;;;12.02;;
5616;SDS011;2830;50.656;7.568;2024-01-07T00:53:52;21.65;;;11.20;;
5616;SDS011;2830;50.656;7.568;2024-01-07T00:56:19;24.83;;;12.43;;
5616;SDS011;2830;50.656;7.568;2024-01-07T00:58:46;21.73;;;11.00;;
5616;SDS011;2830;50.656;7.568;2024-01-07T01:01:13;19.80;;;10.10;;
5616;SDS011;2830;50.656;7.568;2024-01-07T01:03:40;21.75;;;10.40;;
5616;SDS011;2830;50.656;7.568;2024-01-07T01:06:06;22.88;;;11.35;;
5616;SDS011;2830;50.656;7.568;2024-01-07T01:08:33;25.52;;;10.82;;
5616;SDS011;2830;50.656;7.568;2024-01-07T01:11:00;21.15;;;10.95;;
5616;SDS011;2830;50.656;7.568;2024-01-07T01:13:27;20.98;;;10.15;;
5616;SDS011;2830;50.656;7.568;2024-01-07T01:15:54;24.05;;;10.70;;
5616;SDS011;2830;50.656;7.568;2024-01-07T01:18:21;19.83;;;10.57;;
5616;SDS011;2830;50.656;7.568;2024-01-07T01:20:48;20.98;;;10.75;;
5616;SDS011;2830;50.656;7.568;2024-01-07T01:23:15;23.23;;;10.30;;
5616;SDS011;2830;50.656;7.568;2024-01-07T01:25:42;18.33;;;9.77;;
5616;SDS011;2830;50.656;7.568;2024-01-07T01:28:09;17.48;;;9.45;;
5616;SDS011;2830;50.656;7.568;2024-01-07T01:30:36;18.02;;;8.75;;
5616;SDS011;2830;50.656;7.568;2024-01-07T01:33:03;19.23;;;10.18;;
5616;SDS011;2830;50.656;7.568;2024-01-07T01:35:30;17.50;;;9.48;;
5616;SDS011;2830;50.656;7.568;2024-01-07T01:37:57;14.43;;;8.18;;
5616;SDS011;2830;50.656;7.568;2024-01-07T01:40:24;19.95;;;8.02;;
5616;SDS011;2830;50.656;7.568;2024-01-07T01:42:51;15.23;;;6.95;;
5616;SDS011;2830;50.656;7.568;2024-01-07T01:45:18;14.20;;;8.95;;
5616;SDS011;2830;50.656;7.568;2024-01-07T01:47:45;17.33;;;9.02;;
5616;SDS011;2830;50.656;7.568;2024-01-07T01:50:13;19.60;;;8.60;;
5616;SDS011;2830;50.656;7.568;2024-01-07T01:52:41;17.85;;;9.38;;
5616;SDS011;2830;50.656;7.568;2024-01-07T01:55:10;17.10;;;9.35;;
5616;SDS011;2830;50.656;7.568;2024-01-07T01:57:38;17.55;;;7.80;;
5616;SDS011;2830;50.656;7.568;2024-01-07T02:00:07;17.10;;;8.48;;
5616;SDS011;2830;50.656;7.568;2024-01-07T02:02:34;15.82;;;7.13;;
5616;SDS011;2830;50.656;7.568;2024-01-07T02:05:02;14.80;;;8.82;;
5616;SDS011;2830;50.656;7.568;2024-01-07T02:07:30;14.07;;;8.18;;
5616;SDS011;2830;50.656;7.568;2024-01-07T02:09:57;14.35;;;8.57;;
5616;SDS011;2830;50.656;7.568;2024-01-07T02:12:25;17.20;;;9.32;;
5616;SDS011;2830;50.656;7.568;2024-01-07T02:14:52;12.75;;;7.57;;
5616;SDS011;2830;50.656;7.568;2024-01-07T02:17:19;15.02;;;9.50;;
5616;SDS011;2830;50.656;7.568;2024-01-07T02:19:46;14.80;;;8.38;;
5616;SDS011;2830;50.656;7.568;2024-01-07T02:22:13;18.15;;;7.90;;
5616;SDS011;2830;50.656;7.568;2024-01-07T02:24:40;11.75;;;7.38;;
5616;SDS011;2830;50.656;7.568;2024-01-07T02:27:07;12.43;;;7.50;;
5616;SDS011;2830;50.656;7.568;2024-01-07T02:29:34;16.38;;;7.82;;
5616;SDS011;2830;50.656;7.568;2024-01-07T02:32:01;13.98;;;7.45;;
5616;SDS011;2830;50.656;7.568;2024-01-07T02:34:28;15.52;;;7.65;;
5616;SDS011;2830;50.656;7.568;2024-01-07T02:36:55;13.85;;;6.85;;
5616;SDS011;2830;50.656;7.568;2024-01-07T02:39:22;11.90;;;6.90;;
5616;SDS011;2830;50.656;7.568;2024-01-07T02:41:49;12.80;;;6.60;;
5616;SDS011;2830;50.656;7.568;2024-01-07T02:44:16;12.00;;;6.40;;
5616;SDS011;2830;50.656;7.568;2024-01-07T02:46:43;12.27;;;7.07;;
5616;SDS011;2830;50.656;7.568;2024-01-07T02:49:12;12.23;;;7.03;;
5616;SDS011;2830;50.656;7.568;2024-01-07T02:51:39;9.80;;;6.32;;
5616;SDS011;2830;50.656;7.568;2024-01-07T02:54:07;10.73;;;5.65;;
5616;SDS011;2830;50.656;7.568;2024-01-07T02:56:33;11.38;;;6.25;;
5616;SDS011;2830;50.656;7.568;2024-01-07T02:59:00;12.02;;;6.53;;
5616;SDS011;2830;50.656;7.568;2024-01-07T03:01:27;11.65;;;5.05;;
5616;SDS011;2830;50.656;7.568;2024-01-07T03:03:54;10.50;;;7.10;;
5616;SDS011;2830;50.656;7.568;2024-01-07T03:06:22;10.02;;;6.45;;
5616;SDS011;2830;50.656;7.568;2024-01-07T03:08:52;8.15;;;5.75;;
5616;SDS011;2830;50.656;7.568;2024-01-07T03:11:19;11.82;;;6.22;;
5616;SDS011;2830;50.656;7.568;2024-01-07T03:13:46;10.50;;;6.50;;
5616;SDS011;2830;50.656;7.568;2024-01-07T03:16:19;10.43;;;5.80;;
5616;SDS011;2830;50.656;7.568;2024-01-07T03:18:50;9.70;;;5.55;;
5616;SDS011;2830;50.656;7.568;2024-01-07T03:23:49;6.80;;;4.32;;
5616;SDS011;2830;50.656;7.568;2024-01-07T03:26:18;9.00;;;6.50;;
5616;SDS011;2830;50.656;7.568;2024-01-07T03:28:45;8.18;;;4.70;;
5616;SDS011;2830;50.656;7.568;2024-01-07T03:31:13;8.40;;;5.15;;
5616;SDS011;2830;50.656;7.568;2024-01-07T03:33:42;7.75;;;4.75;;
5616;SDS011;2830;50.656;7.568;2024-01-07T03:36:10;5.68;;;4.38;;
5616;SDS011;2830;50.656;7.568;2024-01-07T03:38:39;8.52;;;5.38;;
5616;SDS011;2830;50.656;7.568;2024-01-07T03:41:06;10.25;;;6.22;;
5616;SDS011;2830;50.656;7.568;2024-01-07T03:43:33;8.35;;;5.15;;
5616;SDS011;2830;50.656;7.568;2024-01-07T03:46:00;9.27;;;5.22;;
5616;SDS011;2830;50.656;7.568;2024-01-07T03:48:27;8.38;;;5.53;;
5616;SDS011;2830;50.656;7.568;2024-01-07T03:50:54;10.98;;;6.53;;
5616;SDS011;2830;50.656;7.568;2024-01-07T03:53:21;8.05;;;5.15;;
5616;SDS011;2830;50.656;7.568;2024-01-07T03:55:48;8.65;;;5.75;;
5616;SDS011;2830;50.656;7.568;2024-01-07T03:58:15;9.38;;;5.55;;
5616;SDS011;2830;50.656;7.568;2024-01-07T04:00:42;10.48;;;6.40;;
5616;SDS011;2830;50.656;7.568;2024-01-07T04:03:10;10.95;;;6.45;;
5616;SDS011;2830;50.656;7.568;2024-01-07T04:05:36;8.55;;;5.53;;
5616;SDS011;2830;50.656;7.568;2024-01-07T04:08:04;8.43;;;5.53;;
5616;SDS011;2830;50.656;7.568;2024-01-07T04:10:31;10.23;;;5.75;;
5616;SDS011;2830;50.656;7.568;2024-01-07T04:12:58;8.70;;;5.40;;
5616;SDS011;2830;50.656;7.568;2024-01-07T04:15:25;8.77;;;5.35;;
5616;SDS011;2830;50.656;7.568;2024-01-07T04:17:52;8.27;;;5.20;;
5616;SDS011;2830;50.656;7.568;2024-01-07T04:20:20;8.15;;;4.47;;
5616;SDS011;2830;50.656;7.568;2024-01-07T04:22:47;9.52;;;5.28;;
5616;SDS011;2830;50.656;7.568;2024-01-07T04:25:13;9.20;;;5.82;;
5616;SDS011;2830;50.656;7.568;2024-01-07T04:27:41;7.75;;;4.40;;
5616;SDS011;2830;50.656;7.568;2024-01-07T04:30:08;8.30;;;5.00;;
5616;SDS011;2830;50.656;7.568;2024-01-07T04:32:35;6.45;;;4.22;;
5616;SDS011;2830;50.656;7.568;2024-01-07T04:35:02;7.15;;;4.82;;
5616;SDS011;2830;50.656;7.568;2024-01-07T04:37:30;7.70;;;5.10;;
5616;SDS011;2830;50.656;7.568;2024-01-07T04:39:56;7.07;;;4.43;;
5616;SDS011;2830;50.656;7.568;2024-01-07T04:42:23;6.32;;;4.20;;
5616;SDS011;2830;50.656;7.568;2024-01-07T04:44:50;4.65;;;3.58;;
5616;SDS011;2830;50.656;7.568;2024-01-07T04:47:27;4.93;;;3.05;;
5616;SDS011;2830;50.656;7.568;2024-01-07T04:49:55;9.40;;;5.00;;
5616;SDS011;2830;50.656;7.568;2024-01-07T04:52:23;6.85;;;4.38;;
5616;SDS011;2830;50.656;7.568;2024-01-07T04:54:51;5.13;;;3.72;;
5616;SDS011;2830;50.656;7.568;2024-01-07T04:57:19;9.18;;;5.60;;
5616;SDS011;2830;50.656;7.568;2024-01-07T04:59:46;5.07;;;3.40;;
5616;SDS011;2830;50.656;7.568;2024-01-07T05:02:14;5.03;;;3.58;;
5616;SDS011;2830;50.656;7.568;2024-01-07T05:04:41;6.03;;;4.15;;
5616;SDS011;2830;50.656;7.568;2024-01-07T05:07:08;5.10;;;4.32;;
5616;SDS011;2830;50.656;7.568;2024-01-07T05:09:35;7.22;;;3.65;;
5616;SDS011;2830;50.656;7.568;2024-01-07T05:12:02;6.90;;;4.80;;
5616;SDS011;2830;50.656;7.568;2024-01-07T05:14:29;6.72;;;3.90;;
5616;SDS011;2830;50.656;7.568;2024-01-07T05:16:56;6.00;;;3.70;;
5616;SDS011;2830;50.656;7.568;2024-01-07T05:19:23;6.30;;;3.28;;
5616;SDS011;2830;50.656;7.568;2024-01-07T05:21:50;6.40;;;3.92;;
5616;SDS011;2830;50.656;7.568;2024-01-07T05:24:17;4.82;;;3.15;;
5616;SDS011;2830;50.656;7.568;2024-01-07T05:26:44;7.40;;;3.75;;
5616;SDS011;2830;50.656;7.568;2024-01-07T05:29:11;5.30;;;2.90;;
5616;SDS011;2830;50.656;7.568;2024-01-07T05:31:41;5.57;;;3.17;;
5616;SDS011;2830;50.656;7.568;2024-01-07T05:34:08;5.40;;;3.53;;
5616;SDS011;2830;50.656;7.568;2024-01-07T05:36:35;4.43;;;3.20;;
5616;SDS011;2830;50.656;7.568;2024-01-07T05:39:02;5.45;;;3.38;;
5616;SDS011;2830;50.656;7.568;2024-01-07T05:41:30;5.68;;;3.28;;
5616;SDS011;2830;50.656;7.568;2024-01-07T05:43:57;6.13;;;4.03;;
5616;SDS011;2830;50.656;7.568;2024-01-07T05:46:24;5.80;;;3.65;;
5616;SDS011;2830;50.656;7.568;2024-01-07T05:48:51;6.40;;;4.43;;
5616;SDS011;2830;50.656;7.568;2024-01-07T05:51:18;7.82;;;6.43;;
5616;SDS011;2830;50.656;7.568;2024-01-07T05:53:45;5.50;;;3.80;;
5616;SDS011;2830;50.656;7.568;2024-01-07T05:56:12;5.78;;;3.75;;
5616;SDS011;2830;50.656;7.568;2024-01-07T05:58:39;5.45;;;3.97;;
5616;SDS011;2830;50.656;7.568;2024-01-07T06:01:07;9.02;;;5.20;;
5616;SDS011;2830;50.656;7.568;2024-01-07T06:03:35;6.55;;;4.13;;
5616;SDS011;2830;50.656;7.568;2024-01-07T06:06:02;6.90;;;4.90;;
5616;SDS011;2830;50.656;7.568;2024-01-07T06:08:29;5.60;;;4.10;;
5616;SDS011;2830;50.656;7.568;2024-01-07T06:10:56;8.18;;;5.28;;
5616;SDS011;2830;50.656;7.568;2024-01-07T06:13:24;7.18;;;5.07;;
5616;SDS011;2830;50.656;7.568;2024-01-07T06:15:51;7.72;;;5.10;;
5616;SDS011;2830;50.656;7.568;2024-01-07T06:18:18;7.20;;;5.28;;
5616;SDS011;2830;50.656;7.568;2024-01-07T06:20:46;9.48;;;5.78;;
5616;SDS011;2830;50.656;7.568;2024-01-07T06:23:13;7.00;;;5.45;;
5616;SDS011;2830;50.656;7.568;2024-01-07T06:25:40;7.70;;;5.78;;
5616;SDS011;2830;50.656;7.568;2024-01-07T06:28:07;8.95;;;6.30;;
5616;SDS011;2830;50.656;7.568;2024-01-07T06:30:36;10.02;;;6.78;;
5616;SDS011;2830;50.656;7.568;2024-01-07T06:33:04;10.05;;;6.57;;
5616;SDS011;2830;50.656;7.568;2024-01-07T06:35:32;9.88;;;6.07;;
5616;SDS011;2830;50.656;7.568;2024-01-07T06:37:59;7.82;;;5.65;;
5616;SDS011;2830;50.656;7.568;2024-01-07T06:40:25;9.43;;;6.32;;
5616;SDS011;2830;50.656;7.568;2024-01-07T06:42:52;9.80;;;6.72;;
5616;SDS011;2830;50.656;7.568;2024-01-07T06:45:19;10.40;;;6.60;;
5616;SDS011;2830;50.656;7.568;2024-01-07T06:47:46;10.35;;;7.28;;
5616;SDS011;2830;50.656;7.568;2024-01-07T06:50:13;11.57;;;7.60;;
5616;SDS011;2830;50.656;7.568;2024-01-07T06:52:40;11.15;;;6.70;;
5616;SDS011;2830;50.656;7.568;2024-01-07T06:55:07;10.13;;;6.80;;
5616;SDS011;2830;50.656;7.568;2024-01-07T06:57:34;9.73;;;7.03;;
5616;SDS011;2830;50.656;7.568;2024-01-07T07:00:01;9.40;;;6.35;;
5616;SDS011;2830;50.656;7.568;2024-01-07T07:02:29;11.05;;;7.22;;
5616;SDS011;2830;50.656;7.568;2024-01-07T07:04:56;10.20;;;6.82;;
5616;SDS011;2830;50.656;7.568;2024-01-07T07:07:23;11.70;;;7.75;;
5616;SDS011;2830;50.656;7.568;2024-01-07T07:09:50;12.02;;;8.23;;
5616;SDS011;2830;50.656;7.568;2024-01-07T07:12:18;10.52;;;7.45;;
5616;SDS011;2830;50.656;7.568;2024-01-07T07:14:45;10.68;;;7.97;;
5616;SDS011;2830;50.656;7.568;2024-01-07T07:17:13;13.63;;;7.95;;
5616;SDS011;2830;50.656;7.568;2024-01-07T07:19:41;9.18;;;5.95;;
5616;SDS011;2830;50.656;7.568;2024-01-07T07:22:11;9.68;;;6.45;;
5616;SDS011;2830;50.656;7.568;2024-01-07T07:24:41;10.27;;;6.95;;
5616;SDS011;2830;50.656;7.568;2024-01-07T07:27:08;12.80;;;7.63;;
5616;SDS011;2830;50.656;7.568;2024-01-07T07:29:35;15.73;;;7.90;;
5616;SDS011;2830;50.656;7.568;2024-01-07T07:32:02;12.95;;;7.18;;
5616;SDS011;2830;50.656;7.568;2024-01-07T07:34:30;12.25;;;7.55;;
5616;SDS011;2830;50.656;7.568;2024-01-07T07:36:57;13.00;;;8.43;;
5616;SDS011;2830;50.656;7.568;2024-01-07T07:39:24;12.68;;;7.80;;
5616;SDS011;2830;50.656;7.568;2024-01-07T07:41:51;9.27;;;7.25;;
5616;SDS011;2830;50.656;7.568;2024-01-07T07:44:18;10.10;;;7.53;;
5616;SDS011;2830;50.656;7.568;2024-01-07T07:46:45;13.00;;;8.45;;
5616;SDS011;2830;50.656;7.568;2024-01-07T07:49:12;12.73;;;8.75;;
5616;SDS011;2830;50.656;7.568;2024-01-07T07:51:40;13.52;;;8.60;;
5616;SDS011;2830;50.656;7.568;2024-01-07T07:54:07;13.73;;;8.38;;
5616;SDS011;2830;50.656;7.568;2024-01-07T07:56:34;13.68;;;8.20;;
5616;SDS011;2830;50.656;7.568;2024-01-07T07:59:02;16.15;;;9.30;;
5616;SDS011;2830;50.656;7.568;2024-01-07T08:01:30;15.07;;;9.23;;
5616;SDS011;2830;50.656;7.568;2024-01-07T08:03:57;16.70;;;8.85;;
5616;SDS011;2830;50.656;7.568;2024-01-07T08:06:24;12.50;;;8.63;;
5616;SDS011;2830;50.656;7.568;2024-01-07T08:08:51;14.55;;;8.20;;
5616;SDS011;2830;50.656;7.568;2024-01-07T08:11:18;16.25;;;9.60;;
5616;SDS011;2830;50.656;7.568;2024-01-07T08:13:45;14.23;;;9.75;;
5616;SDS011;2830;50.656;7.568;2024-01-07T08:16:12;16.27;;;9.38;;
5616;SDS011;2830;50.656;7.568;2024-01-07T08:18:39;17.33;;;7.90;;
5616;SDS011;2830;50.656;7.568;2024-01-07T08:21:06;13.77;;;8.35;;
5616;SDS011;2830;50.656;7.568;2024-01-07T08:23:33;14.02;;;8.30;;
5616;SDS011;2830;50.656;7.568;2024-01-07T08:26:00;14.80;;;8.80;;
5616;SDS011;2830;50.656;7.568;2024-01-07T08:28:28;17.60;;;10.45;;
5616;SDS011;2830;50.656;7.568;2024-01-07T08:30:55;11.32;;;8.40;;
5616;SDS011;2830;50.656;7.568;2024-01-07T08:33:22;18.50;;;10.85;;
5616;SDS011;2830;50.656;7.568;2024-01-07T08:35:49;14.70;;;8.20;;
5616;SDS011;2830;50.656;7.568;2024-01-07T08:38:16;16.05;;;9.45;;
5616;SDS011;2830;50.656;7.568;2024-01-07T08:40:43;15.23;;;10.07;;
5616;SDS011;2830;50.656;7.568;2024-01-07T08:43:11;18.25;;;9.82;;
5616;SDS011;2830;50.656;7.568;2024-01-07T08:45:38;17.67;;;9.38;;
5616;SDS011;2830;50.656;7.568;2024-01-07T08:48:05;17.25;;;10.10;;
5616;SDS011;2830;50.656;7.568;2024-01-07T08:50:32;15.80;;;10.05;;
5616;SDS011;2830;50.656;7.568;2024-01-07T08:52:59;15.20;;;8.35;;
5616;SDS011;2830;50.656;7.568;2024-01-07T08:55:30;15.70;;;8.95;;
5616;SDS011;2830;50.656;7.568;2024-01-07T08:57:57;17.42;;;10.93;;
5616;SDS011;2830;50.656;7.568;2024-01-07T09:00:25;19.58;;;9.73;;
5616;SDS011;2830;50.656;7.568;2024-01-07T09:02:53;15.82;;;10.43;;
5616;SDS011;2830;50.656;7.568;2024-01-07T09:05:20;16.92;;;9.90;;
5616;SDS011;2830;50.656;7.568;2024-01-07T09:07:47;17.92;;;10.93;;
5616;SDS011;2830;50.656;7.568;2024-01-07T09:10:14;16.20;;;10.27;;
5616;SDS011;2830;50.656;7.568;2024-01-07T09:12:41;16.83;;;8.45;;
5616;SDS011;2830;50.656;7.568;2024-01-07T09:15:08;16.02;;;9.63;;
5616;SDS011;2830;50.656;7.568;2024-01-07T09:17:37;19.90;;;10.77;;
5616;SDS011;2830;50.656;7.568;2024-01-07T09:20:04;16.33;;;9.02;;
5616;SDS011;2830;50.656;7.568;2024-01-07T09:22:34;14.15;;;8.45;;
5616;SDS011;2830;50.656;7.568;2024-01-07T09:25:02;14.23;;;9.77;;
5616;SDS011;2830;50.656;7.568;2024-01-07T09:27:33;14.75;;;8.75;;
5616;SDS011;2830;50.656;7.568;2024-01-07T09:30:01;17.00;;;9.43;;
5616;SDS011;2830;50.656;7.568;2024-01-07T09:32:28;18.63;;;10.95;;
5616;SDS011;2830;50.656;7.568;2024-01-07T09:34:56;14.77;;;9.48;;
5616;SDS011;2830;50.656;7.568;2024-01-07T09:37:24;18.92;;;11.80;;
5616;SDS011;2830;50.656;7.568;2024-01-07T09:39:52;15.57;;;9.32;;
5616;SDS011;2830;50.656;7.568;2024-01-07T09:42:19;16.83;;;11.63;;
5616;SDS011;2830;50.656;7.568;2024-01-07T09:44:46;16.58;;;11.38;;
5616;SDS011;2830;50.656;7.568;2024-01-07T09:47:14;17.65;;;11.10;;
5616;SDS011;2830;50.656;7.568;2024-01-07T09:49:42;16.40;;;11.55;;
5616;SDS011;2830;50.656;7.568;2024-01-07T09:52:11;15.90;;;10.65;;
5616;SDS011;2830;50.656;7.568;2024-01-07T09:54:41;18.55;;;10.15;;
5616;SDS011;2830;50.656;7.568;2024-01-07T09:57:08;15.48;;;10.02;;
5616;SDS011;2830;50.656;7.568;2024-01-07T09:59:36;13.60;;;9.32;;
5616;SDS011;2830;50.656;7.568;2024-01-07T10:02:03;20.33;;;12.55;;
5616;SDS011;2830;50.656;7.568;2024-01-07T10:04:31;19.20;;;14.02;;
5616;SDS011;2830;50.656;7.568;2024-01-07T10:06:58;14.77;;;9.98;;
5616;SDS011;2830;50.656;7.568;2024-01-07T10:09:29;17.25;;;9.35;;
5616;SDS011;2830;50.656;7.568;2024-01-07T10:11:59;24.95;;;14.98;;
5616;SDS011;2830;50.656;7.568;2024-01-07T10:14:26;16.38;;;10.23;;
5616;SDS011;2830;50.656;7.568;2024-01-07T10:16:57;18.42;;;11.63;;
5616;SDS011;2830;50.656;7.568;2024-01-07T10:19:24;17.58;;;12.07;;
5616;SDS011;2830;50.656;7.568;2024-01-07T10:22:02;18.13;;;12.82;;
5616;SDS011;2830;50.656;7.568;2024-01-07T10:24:40;17.63;;;12.02;;
5616;SDS011;2830;50.656;7.568;2024-01-07T10:27:08;16.02;;;10.30;;
5616;SDS011;2830;50.656;7.568;2024-01-07T10:29:36;13.50;;;8.10;;
5616;SDS011;2830;50.656;7.568;2024-01-07T10:32:03;16.15;;;10.68;;
5616;SDS011;2830;50.656;7.568;2024-01-07T10:34:32;13.50;;;9.23;;
5616;SDS011;2830;50.656;7.568;2024-01-07T10:37:02;15.05;;;8.80;;
5616;SDS011;2830;50.656;7.568;2024-01-07T10:39:31;12.23;;;8.70;;
5616;SDS011;2830;50.656;7.568;2024-01-07T10:41:58;12.35;;;8.77;;
5616;SDS011;2830;50.656;7.568;2024-01-07T10:44:26;13.90;;;8.43;;
5616;SDS011;2830;50.656;7.568;2024-01-07T10:46:55;12.02;;;7.80;;
5616;SDS011;2830;50.656;7.568;2024-01-07T10:49:24;16.45;;;13.30;;
5616;SDS011;2830;50.656;7.568;2024-01-07T10:52:07;17.80;;;12.60;;
5616;SDS011;2830;50.656;7.568;2024-01-07T10:54:35;12.38;;;8.60;;
5616;SDS011;2830;50.656;7.568;2024-01-07T10:57:12;18.95;;;12.10;;
5616;SDS011;2830;50.656;7.568;2024-01-07T10:59:44;13.15;;;9.93;;
5616;SDS011;2830;50.656;7.568;2024-01-07T11:02:13;13.48;;;9.10;;
5616;SDS011;2830;50.656;7.568;2024-01-07T11:04:42;14.27;;;10.63;;
5616;SDS011;2830;50.656;7.568;2024-01-07T11:07:23;16.42;;;12.02;;
5616;SDS011;2830;50.656;7.568;2024-01-07T11:10:06;17.42;;;12.60;;
5616;SDS011;2830;50.656;7.568;2024-01-07T11:12:53;16.52;;;11.60;;
5616;SDS011;2830;50.656;7.568;2024-01-07T11:18:19;28.60;;;17.80;;
5616;SDS011;2830;50.656;7.568;2024-01-07T11:20:50;14.95;;;10.02;;
5616;SDS011;2830;50.656;7.568;2024-01-07T11:23:30;27.67;;;19.42;;
5616;SDS011;2830;50.656;7.568;2024-01-07T11:26:07;15.77;;;9.05;;
5616;SDS011;2830;50.656;7.568;2024-01-07T11:34:08;10.70;;;7.13;;
5616;SDS011;2830;50.656;7.568;2024-01-07T11:36:36;14.10;;;9.10;;
5616;SDS011;2830;50.656;7.568;2024-01-07T11:39:04;9.40;;;7.25;;
5616;SDS011;2830;50.656;7.568;2024-01-07T11:41:36;12.13;;;7.78;;
5616;SDS011;2830;50.656;7.568;2024-01-07T11:44:04;11.75;;;7.88;;
5616;SDS011;2830;50.656;7.568;2024-01-07T11:46:32;17.15;;;8.25;;
5616;SDS011;2830;50.656;7.568;2024-01-07T11:49:01;10.65;;;7.20;;
5616;SDS011;2830;50.656;7.568;2024-01-07T11:51:29;11.23;;;7.70;;
5616;SDS011;2830;50.656;7.568;2024-01-07T11:53:58;14.50;;;9.48;;
5616;SDS011;2830;50.656;7.568;2024-01-07T11:56:27;16.77;;;9.35;;
5616;SDS011;2830;50.656;7.568;2024-01-07T11:58:54;17.17;;;9.73;;
5616;SDS011;2830;50.656;7.568;2024-01-07T12:01:24;14.70;;;9.27;;
5616;SDS011;2830;50.656;7.568;2024-01-07T12:03:54;8.93;;;7.07;;
5616;SDS011;2830;50.656;7.568;2024-01-07T12:06:22;17.05;;;13.00;;
5616;SDS011;2830;50.656;7.568;2024-01-07T12:08:49;16.25;;;11.70;;
5616;SDS011;2830;50.656;7.568;2024-01-07T12:11:16;15.27;;;11.60;;
5616;SDS011;2830;50.656;7.568;2024-01-07T12:13:43;13.85;;;9.48;;
5616;SDS011;2830;50.656;7.568;2024-01-07T12:16:11;12.68;;;9.70;;
5616;SDS011;2830;50.656;7.568;2024-01-07T12:18:41;14.70;;;10.45;;
5616;SDS011;2830;50.656;7.568;2024-01-07T12:21:09;16.55;;;9.90;;
5616;SDS011;2830;50.656;7.568;2024-01-07T12:23:36;19.08;;;14.05;;
5616;SDS011;2830;50.656;7.568;2024-01-07T12:26:08;12.32;;;9.60;;
5616;SDS011;2830;50.656;7.568;2024-01-07T12:28:37;13.20;;;10.40;;
5616;SDS011;2830;50.656;7.568;2024-01-07T12:31:07;14.07;;;11.43;;
5616;SDS011;2830;50.656;7.568;2024-01-07T12:33:38;8.70;;;7.15;;
5616;SDS011;2830;50.656;7.568;2024-01-07T12:36:07;9.70;;;7.20;;
5616;SDS011;2830;50.656;7.568;2024-01-07T12:38:36;10.27;;;7.57;;
5616;SDS011;2830;50.656;7.568;2024-01-07T12:41:06;13.43;;;9.63;;
5616;SDS011;2830;50.656;7.568;2024-01-07T12:43:34;11.25;;;7.22;;
5616;SDS011;2830;50.656;7.568;2024-01-07T12:46:01;13.98;;;9.68;;
5616;SDS011;2830;50.656;7.568;2024-01-07T12:48:32;6.60;;;4.90;;
5616;SDS011;2830;50.656;7.568;2024-01-07T12:51:00;7.80;;;5.20;;
5616;SDS011;2830;50.656;7.568;2024-01-07T12:53:27;7.43;;;4.65;;
5616;SDS011;2830;50.656;7.568;2024-01-07T12:55:56;7.32;;;4.50;;
5616;SDS011;2830;50.656;7.568;2024-01-07T12:58:23;7.13;;;4.13;;
5616;SDS011;2830;50.656;7.568;2024-01-07T13:00:50;5.65;;;4.15;;
5616;SDS011;2830;50.656;7.568;2024-01-07T13:03:17;6.97;;;4.13;;
5616;SDS011;2830;50.656;7.568;2024-01-07T13:05:46;7.35;;;3.97;;
5616;SDS011;2830;50.656;7.568;2024-01-07T13:08:16;6.47;;;3.75;;
5616;SDS011;2830;50.656;7.568;2024-01-07T13:10:45;7.38;;;3.95;;
5616;SDS011;2830;50.656;7.568;2024-01-07T13:13:12;13.43;;;5.85;;
5616;SDS011;2830;50.656;7.568;2024-01-07T13:15:43;8.18;;;5.05;;
5616;SDS011;2830;50.656;7.568;2024-01-07T13:18:10;4.97;;;3.28;;
5616;SDS011;2830;50.656;7.568;2024-01-07T13:20:40;7.35;;;4.25;;
5616;SDS011;2830;50.656;7.568;2024-01-07T13:23:07;5.80;;;3.97;;
5616;SDS011;2830;50.656;7.568;2024-01-07T13:25:34;8.15;;;4.75;;
5616;SDS011;2830;50.656;7.568;2024-01-07T13:28:01;9.98;;;6.28;;
5616;SDS011;2830;50.656;7.568;2024-01-07T13:30:28;6.72;;;5.30;;
5616;SDS011;2830;50.656;7.568;2024-01-07T13:32:55;10.82;;;5.20;;
5616;SDS011;2830;50.656;7.568;2024-01-07T13:35:24;8.60;;;5.30;;
5616;SDS011;2830;50.656;7.568;2024-01-07T13:37:51;9.52;;;5.35;;
5616;SDS011;2830;50.656;7.568;2024-01-07T13:40:18;9.88;;;5.60;;
5616;SDS011;2830;50.656;7.568;2024-01-07T13:42:47;8.30;;;5.82;;
5616;SDS011;2830;50.656;7.568;2024-01-07T13:45:17;6.13;;;4.97;;
5616;SDS011;2830;50.656;7.568;2024-01-07T13:47:47;7.55;;;5.22;;
5616;SDS011;2830;50.656;7.568;2024-01-07T13:50:14;10.38;;;6.00;;
5616;SDS011;2830;50.656;7.568;2024-01-07T13:52:41;8.98;;;6.50;;
5616;SDS011;2830;50.656;7.568;2024-01-07T13:55:09;9.45;;;6.05;;
5616;SDS011;2830;50.656;7.568;2024-01-07T13:57:38;9.20;;;5.45;;
5616;SDS011;2830;50.656;7.568;2024-01-07T14:00:07;10.30;;;6.60;;
5616;SDS011;2830;50.656;7.568;2024-01-07T14:02:36;9.40;;;6.25;;
5616;SDS011;2830;50.656;7.568;2024-01-07T14:05:05;9.02;;;6.82;;
5616;SDS011;2830;50.656;7.568;2024-01-07T14:07:40;13.07;;;7.07;;
5616;SDS011;2830;50.656;7.568;2024-01-07T14:10:07;9.10;;;6.90;;
5616;SDS011;2830;50.656;7.568;2024-01-07T14:12:35;11.30;;;6.75;;
5616;SDS011;2830;50.656;7.568;2024-01-07T14:15:02;9.25;;;6.57;;
5616;SDS011;2830;50.656;7.568;2024-01-07T14:17:30;10.02;;;6.38;;
5616;SDS011;2830;50.656;7.568;2024-01-07T14:19:57;7.90;;;5.50;;
5616;SDS011;2830;50.656;7.568;2024-01-07T14:22:24;6.78;;;5.18;;
5616;SDS011;2830;50.656;7.568;2024-01-07T14:24:51;8.57;;;5.07;;
5616;SDS011;2830;50.656;7.568;2024-01-07T14:27:18;8.48;;;5.35;;
5616;SDS011;2830;50.656;7.568;2024-01-07T14:29:45;7.95;;;5.10;;
5616;SDS011;2830;50.656;7.568;2024-01-07T14:32:12;7.25;;;4.55;;
5616;SDS011;2830;50.656;7.568;2024-01-07T14:34:40;8.27;;;5.30;;
5616;SDS011;2830;50.656;7.568;2024-01-07T14:37:10;7.55;;;4.80;;
5616;SDS011;2830;50.656;7.568;2024-01-07T14:39:37;9.65;;;4.32;;
5616;SDS011;2830;50.656;7.568;2024-01-07T14:42:05;7.55;;;3.97;;
5616;SDS011;2830;50.656;7.568;2024-01-07T14:44:32;4.20;;;3.03;;
5616;SDS011;2830;50.656;7.568;2024-01-07T14:47:13;7.18;;;3.95;;
5616;SDS011;2830;50.656;7.568;2024-01-07T14:49:41;8.88;;;3.97;;
5616;SDS011;2830;50.656;7.568;2024-01-07T14:52:08;7.40;;;3.90;;
5616;SDS011;2830;50.656;7.568;2024-01-07T14:54:35;5.40;;;3.78;;
5616;SDS011;2830;50.656;7.568;2024-01-07T14:57:04;6.90;;;3.50;;
5616;SDS011;2830;50.656;7.568;2024-01-07T14:59:33;6.03;;;3.75;;
5616;SDS011;2830;50.656;7.568;2024-01-07T15:02:02;5.32;;;3.92;;
5616;SDS011;2830;50.656;7.568;2024-01-07T15:04:30;4.60;;;3.67;;
5616;SDS011;2830;50.656;7.568;2024-01-07T15:06:57;4.97;;;3.10;;
5616;SDS011;2830;50.656;7.568;2024-01-07T15:09:25;5.43;;;3.40;;
5616;SDS011;2830;50.656;7.568;2024-01-07T15:11:51;4.43;;;3.40;;
5616;SDS011;2830;50.656;7.568;2024-01-07T15:14:19;6.35;;;3.90;;
5616;SDS011;2830;50.656;7.568;2024-01-07T15:16:46;7.00;;;3.83;;
5616;SDS011;2830;50.656;7.568;2024-01-07T15:19:18;4.75;;;3.30;;